CPX457 Details

Departure: Minneapolis-St Paul International Airport (KMSP)
Arrival: Newark Liberty International Airport (KEWR)
Route: WLSTN7 GRB KEEHO J584 SLT FQM3


Current Weather Information
KMSP 171553Z 19008KT 10SM FEW060 FEW250 24/14 A2986 RMK AO2 SLP106 T02440144 $
KEWR 171551Z 05006KT 10SM SCT026 SCT040 28/22 A3002 RMK AO2 SLP166 T02830217